createdAt,value
2023-04-14T09:41:49.371Z,95436.03
2023-04-14T09:44:18.392Z,95439.88
2023-04-14T09:47:00.890Z,95442.84
2023-04-14T09:49:30.540Z,95436.22
2023-04-14T09:52:10.699Z,95442.56
2023-04-14T09:54:41.036Z,95433.19
2023-04-14T09:57:09.808Z,95432.78
2023-04-14T09:59:39.836Z,95425.50
2023-04-14T10:02:11.996Z,95422.56
2023-04-14T10:04:42.038Z,95415.66
2023-04-14T10:07:13.041Z,95417.50
2023-04-14T10:09:43.554Z,95418.16
2023-04-14T10:12:15.333Z,95414.78
2023-04-14T10:14:45.647Z,95414.94
2023-04-14T10:17:15.212Z,95405.91
2023-04-14T10:19:44.187Z,95404.72
2023-04-14T10:22:13.353Z,95402.66
2023-04-14T10:24:42.410Z,95397.81
2023-04-14T10:27:11.660Z,95399.56
2023-04-14T10:29:42.894Z,95388.28
2023-04-14T10:32:16.559Z,95384.31
2023-04-14T10:35:07.473Z,95373.16
2023-04-14T10:37:37.355Z,95381.44
2023-04-14T10:40:08.734Z,95374.06
2023-04-14T10:42:55.316Z,95384.53
2023-04-14T10:45:24.432Z,95372.81
2023-04-14T10:47:53.619Z,95372.94
2023-04-14T10:50:25.956Z,95370.28
2023-04-14T10:52:59.659Z,95354.91
2023-04-14T10:55:28.896Z,95363.34
2023-04-14T10:58:07.024Z,95346.44
2023-04-14T11:00:39.620Z,95350.97
2023-04-14T11:03:13.455Z,95337.00
2023-04-14T11:05:46.527Z,95337.66
2023-04-14T11:08:37.700Z,95327.63
2023-04-14T11:11:07.916Z,95319.06
2023-04-14T11:13:39.185Z,95324.63
2023-04-14T11:16:08.618Z,95301.91
2023-04-14T11:18:45.539Z,95294.09
2023-04-14T11:21:17.345Z,95299.00
2023-04-14T11:23:47.374Z,95300.13
2023-04-14T11:26:16.282Z,95291.28
2023-04-14T11:28:47.329Z,95293.19
2023-04-14T11:31:22.466Z,95292.91
2023-04-14T11:33:52.191Z,95282.97
2023-04-14T11:36:21.021Z,95280.38
2023-04-14T11:38:50.668Z,95280.00
2023-04-14T11:41:20.838Z,95281.56
2023-04-14T11:43:49.706Z,95271.25
2023-04-14T11:46:25.058Z,95270.41
2023-04-14T11:48:57.973Z,95264.47
2023-04-14T11:51:34.860Z,95266.97
2023-04-14T11:54:04.336Z,95265.00
2023-04-14T11:56:34.113Z,95259.16
2023-04-14T11:59:05.029Z,95254.50
2023-04-14T12:01:34.997Z,95253.75
2023-04-14T12:04:04.918Z,95256.81
2023-04-14T12:06:39.298Z,95247.19
2023-04-14T12:09:10.004Z,95233.69
2023-04-14T12:11:39.528Z,95232.88
2023-04-14T12:14:09.841Z,95228.06
2023-04-14T12:16:38.778Z,95234.19
2023-04-14T12:19:08.267Z,95225.13
2023-04-14T12:21:37.042Z,95220.44
2023-04-14T12:24:06.021Z,95219.25
2023-04-14T12:26:38.571Z,95215.22
2023-04-14T12:29:10.654Z,95208.88
2023-04-14T12:31:44.812Z,95208.19
2023-04-14T12:34:15.732Z,95204.19
2023-04-14T12:36:52.763Z,95199.22
2023-04-14T12:39:24.492Z,95195.22
2023-04-14T12:41:54.247Z,95186.97
2023-04-14T12:44:25.050Z,95187.84
2023-04-14T12:46:55.364Z,95186.56
2023-04-14T12:49:38.248Z,95177.25
2023-04-14T12:52:08.961Z,95171.84
2023-04-14T12:54:54.127Z,95160.41
2023-04-14T12:57:23.183Z,95156.53
2023-04-14T12:59:53.149Z,95148.63
2023-04-14T13:02:23.506Z,95143.97
2023-04-14T13:04:52.664Z,95142.44
2023-04-14T13:07:22.168Z,95143.13
2023-04-14T13:09:52.514Z,95136.22
2023-04-14T13:12:21.463Z,95139.75
2023-04-14T13:14:50.615Z,95125.19
2023-04-14T13:17:19.618Z,95126.47
2023-04-14T13:19:48.597Z,95125.78
2023-04-14T13:22:17.436Z,95113.13
2023-04-14T13:24:46.856Z,95103.63
2023-04-14T13:27:16.606Z,95098.31
2023-04-14T13:29:46.367Z,95094.16
2023-04-14T13:32:15.321Z,95077.03
2023-04-14T13:34:45.739Z,95082.88
2023-04-14T13:37:15.434Z,95086.31
2023-04-14T13:39:44.557Z,95078.50
2023-04-14T13:42:14.460Z,95079.72
2023-04-14T13:44:43.373Z,95070.59
2023-04-14T13:47:12.229Z,95068.41
2023-04-14T13:49:41.056Z,95066.88
2023-04-14T13:52:09.771Z,95064.47
2023-04-14T13:54:38.557Z,95061.38
2023-04-14T13:57:08.441Z,95058.97
2023-04-14T13:59:37.348Z,95048.25
2023-04-14T14:02:08.941Z,95040.59
2023-04-14T14:04:38.716Z,95028.34
2023-04-14T14:07:07.886Z,95010.31
2023-04-14T14:09:36.793Z,95030.81
2023-04-14T14:12:06.353Z,95021.19
2023-04-14T14:14:35.257Z,95024.13
2023-04-14T14:17:04.294Z,95010.31
2023-04-14T14:19:33.702Z,95007.13
2023-04-14T14:22:02.815Z,95008.16
2023-04-14T14:24:31.642Z,95007.31
2023-04-14T14:27:00.540Z,94995.81
2023-04-14T14:29:29.616Z,94995.09
2023-04-14T14:31:58.343Z,94987.09
2023-04-14T14:34:27.055Z,94969.97
2023-04-14T14:36:56.651Z,94979.31
2023-04-14T14:39:25.528Z,94972.28
2023-04-14T14:41:54.314Z,94962.22
2023-04-14T14:44:23.190Z,94966.31
2023-04-14T14:46:53.292Z,94956.56
2023-04-14T14:49:22.165Z,94950.19
2023-04-14T14:51:52.253Z,94952.84
2023-04-14T14:54:21.014Z,94947.78
2023-04-14T14:56:49.893Z,94934.59
2023-04-14T14:59:19.203Z,94938.81
2023-04-14T15:01:49.417Z,94929.75
2023-04-14T15:04:18.996Z,94922.50
2023-04-14T15:06:47.956Z,94916.25
2023-04-14T15:09:16.806Z,94909.03
2023-04-14T15:11:45.868Z,94898.28
2023-04-14T15:14:15.189Z,94898.09
2023-04-14T15:16:44.050Z,94884.81
2023-04-14T15:19:13.384Z,94876.66
2023-04-14T15:21:43.934Z,94872.13
2023-04-14T15:24:12.874Z,94848.47
2023-04-14T15:26:42.247Z,94850.00
2023-04-14T15:29:11.283Z,94843.91
2023-04-14T15:31:40.043Z,94832.88
2023-04-14T15:34:09.317Z,94850.44
2023-04-14T15:36:38.157Z,94855.69
2023-04-14T15:39:07.161Z,94867.06
2023-04-14T15:41:36.949Z,94857.56
2023-04-14T15:44:05.866Z,94852.66
2023-04-14T15:46:34.701Z,94847.00
2023-04-14T15:49:03.432Z,94844.47
2023-04-14T15:51:32.169Z,94835.00
2023-04-14T15:54:01.506Z,94822.06
2023-04-14T15:56:30.960Z,94822.66
2023-04-14T15:58:59.724Z,94810.16
2023-04-14T16:01:29.618Z,94822.69
2023-04-14T16:03:59.068Z,94812.25
2023-04-14T16:06:29.058Z,94798.34
2023-04-14T16:08:58.455Z,94799.72
2023-04-14T16:11:28.973Z,94792.44
2023-04-14T16:13:58.104Z,94781.66
2023-04-14T16:16:27.001Z,94783.97
2023-04-14T16:18:55.885Z,94766.16
2023-04-14T16:21:24.850Z,94760.69
2023-04-14T16:23:53.690Z,94757.50
2023-04-14T16:26:23.477Z,94755.22
2023-04-14T16:28:53.436Z,94752.56
2023-04-14T16:31:22.363Z,94752.56
2023-04-14T16:33:51.405Z,94735.25
2023-04-14T16:36:22.264Z,94729.94
2023-04-14T16:38:51.573Z,94734.06
2023-04-14T16:41:20.901Z,94723.41
2023-04-14T16:43:50.172Z,94721.59
2023-04-14T16:46:21.521Z,94702.00
2023-04-14T16:48:50.595Z,94700.75
2023-04-14T16:51:20.597Z,94698.59
2023-04-14T16:53:50.025Z,94691.84
2023-04-14T16:56:20.146Z,94686.88
2023-04-14T16:58:49.103Z,94673.16
2023-04-14T17:01:19.617Z,94669.06
2023-04-14T17:03:48.804Z,94655.34
2023-04-14T17:06:18.209Z,94644.47
2023-04-14T17:08:47.001Z,94637.13
2023-04-14T17:11:15.962Z,94634.19
2023-04-14T17:13:44.816Z,94627.31
2023-04-14T17:16:13.709Z,94624.00
2023-04-14T17:18:43.385Z,94618.28
2023-04-14T17:21:12.187Z,94601.50
2023-04-14T17:23:41.365Z,94606.78
2023-04-14T17:26:10.266Z,94590.28
2023-04-14T17:28:40.314Z,94591.38
2023-04-14T17:31:16.384Z,94588.63
2023-04-14T17:33:46.311Z,94581.72
2023-04-14T17:36:16.999Z,94559.13
2023-04-14T17:38:46.350Z,94547.31
2023-04-14T17:41:15.248Z,94561.41
2023-04-14T17:43:44.303Z,94556.78
2023-04-14T17:46:13.207Z,94556.16
2023-04-14T17:48:42.333Z,94552.94
2023-04-14T17:51:12.077Z,94553.34
2023-04-14T17:53:42.297Z,94530.91
2023-04-14T17:56:12.304Z,94530.16
2023-04-14T17:58:41.564Z,94508.78
2023-04-14T18:01:12.476Z,94521.38
2023-04-14T18:03:42.829Z,94513.88
2023-04-14T18:06:11.894Z,94495.66
2023-04-14T18:08:40.905Z,94499.91
2023-04-14T18:11:10.896Z,94476.31
2023-04-14T18:13:39.684Z,94484.94
2023-04-14T18:16:10.022Z,94461.06
2023-04-14T18:18:39.587Z,94465.94
2023-04-14T18:21:08.821Z,94458.75
2023-04-14T18:23:38.164Z,94455.25
2023-04-14T18:28:39.249Z,94440.88
2023-04-14T18:31:08.386Z,94433.53
2023-04-14T18:33:37.287Z,94438.50
2023-04-14T18:36:06.182Z,94434.97
2023-04-14T18:38:35.166Z,94437.16
2023-04-14T18:41:05.397Z,94429.50
2023-04-14T18:43:34.354Z,94421.94
2023-04-14T18:46:04.381Z,94408.28
2023-04-14T18:48:33.215Z,94395.63
2023-04-14T18:51:05.000Z,94395.63
2023-04-14T18:53:33.952Z,94393.97
2023-04-14T18:56:02.836Z,94395.03
2023-04-14T18:58:31.813Z,94397.88
2023-04-14T19:01:02.585Z,94400.19
2023-04-14T19:03:32.279Z,94393.31
2023-04-14T19:06:01.182Z,94396.75
2023-04-14T19:08:30.015Z,94390.72
2023-04-14T19:10:59.874Z,94388.06
2023-04-14T19:13:29.492Z,94364.03
2023-04-14T19:16:14.087Z,94362.78
2023-04-14T19:18:42.947Z,94344.13
2023-04-14T19:21:11.769Z,94352.03
2023-04-14T19:23:41.570Z,94337.50
2023-04-14T19:26:11.996Z,94335.97
2023-04-14T19:28:42.967Z,94333.72
2023-04-14T19:31:13.241Z,94320.91
2023-04-14T19:33:42.408Z,94298.88
2023-04-14T19:36:17.936Z,94315.03
2023-04-14T19:38:47.426Z,94308.31
2023-04-14T19:41:16.260Z,94304.56
2023-04-14T19:43:46.229Z,94293.69
2023-04-14T19:46:15.995Z,94283.50
2023-04-14T19:48:45.808Z,94279.34
2023-04-14T19:51:14.574Z,94267.97
2023-04-14T19:53:44.083Z,94262.28
2023-04-14T19:56:13.274Z,94252.41
2023-04-14T19:58:42.049Z,94245.22
2023-04-14T20:01:11.971Z,94241.78
2023-04-14T20:04:04.978Z,94230.75
2023-04-14T20:06:31.444Z,94232.31
2023-04-14T20:09:00.651Z,94222.06
2023-04-14T20:11:31.373Z,94208.72
2023-04-14T20:14:00.202Z,94214.47
2023-04-14T20:16:29.282Z,94216.38
2023-04-14T20:18:58.147Z,94247.16
2023-04-14T20:21:27.740Z,94260.16
2023-04-14T20:23:56.645Z,94255.22
2023-04-14T20:26:25.438Z,94276.09
2023-04-14T20:28:54.593Z,94284.81
2023-04-14T20:31:24.991Z,94278.84
2023-04-14T20:33:53.896Z,94275.59
2023-04-14T20:36:24.027Z,94281.03
2023-04-14T20:38:52.814Z,94274.31
2023-04-14T20:41:22.238Z,94269.88
2023-04-14T20:43:50.995Z,94272.59
2023-04-14T20:46:22.187Z,94268.13
2023-04-14T20:48:51.016Z,94279.59
2023-04-14T20:51:19.850Z,94271.63
2023-04-14T20:53:49.316Z,94276.28
2023-04-14T20:56:18.458Z,94285.91
2023-04-14T20:58:47.183Z,94297.44
2023-04-14T21:01:17.324Z,94300.50
2023-04-14T21:03:46.629Z,94306.22
2023-04-14T21:06:16.646Z,94290.16
2023-04-14T21:08:46.220Z,94293.94
2023-04-14T21:11:18.514Z,94307.34
2023-04-14T21:15:26.231Z,94295.81
2023-04-14T21:16:36.662Z,94302.59
2023-04-14T21:19:06.292Z,94303.66
2023-04-14T21:21:35.520Z,94320.69
2023-04-14T21:24:04.590Z,94306.50
2023-04-14T21:26:33.718Z,94311.25
2023-04-14T21:29:02.691Z,94328.59
2023-04-14T21:31:32.446Z,94327.22
2023-04-14T21:34:01.269Z,94340.69
2023-04-14T21:36:30.597Z,94356.09
2023-04-14T21:38:59.282Z,94361.72
2023-04-14T21:41:28.148Z,94359.84
2023-04-14T21:43:56.933Z,94380.72
2023-04-14T21:46:26.109Z,94397.34
2023-04-14T21:48:55.257Z,94406.59
2023-04-14T21:51:24.021Z,94422.88
2023-04-14T21:53:52.834Z,94414.78
2023-04-14T21:56:22.391Z,94425.78
2023-04-14T21:58:51.162Z,94424.78
2023-04-14T22:01:20.604Z,94428.44
2023-04-14T22:03:50.071Z,94447.63
2023-04-14T22:06:19.789Z,94444.13
2023-04-14T22:08:49.321Z,94454.22
2023-04-14T22:11:19.804Z,94447.97
2023-04-14T22:13:49.184Z,94450.78
2023-04-14T22:16:18.107Z,94464.47
2023-04-14T22:18:47.036Z,94461.88
2023-04-14T22:21:16.114Z,94453.72
2023-04-14T22:23:44.833Z,94465.34
2023-04-14T22:26:14.631Z,94469.78
2023-04-14T22:28:43.376Z,94471.25
2023-04-14T22:31:12.809Z,94470.47
2023-04-14T22:33:41.625Z,94481.31
2023-04-14T22:36:10.677Z,94492.94
2023-04-14T22:38:39.479Z,94500.34
2023-04-14T22:41:08.266Z,94513.28
2023-04-14T22:43:37.051Z,94509.75
2023-04-14T22:46:05.946Z,94510.31
2023-04-14T22:48:34.838Z,94524.69
2023-04-14T22:51:03.552Z,94514.66
2023-04-14T22:53:32.435Z,94515.97
2023-04-14T22:56:02.281Z,94520.53
2023-04-14T22:58:39.490Z,94536.06
2023-04-14T23:01:21.432Z,94536.63
2023-04-14T23:03:56.433Z,94558.28
2023-04-14T23:06:25.795Z,94560.34
2023-04-14T23:08:54.604Z,94560.16
2023-04-14T23:11:23.619Z,94554.41
2023-04-14T23:13:52.638Z,94572.06
2023-04-14T23:16:21.562Z,94571.06
2023-04-14T23:18:52.809Z,94594.34
2023-04-14T23:21:25.471Z,94597.38
2023-04-14T23:23:54.341Z,94600.91
2023-04-14T23:26:24.050Z,94593.81
2023-04-14T23:28:53.483Z,94605.19
2023-04-14T23:31:22.441Z,94605.81
2023-04-14T23:33:53.246Z,94627.13
2023-04-14T23:36:22.326Z,94621.06
2023-04-14T23:38:51.204Z,94619.19
2023-04-14T23:41:20.073Z,94621.69
2023-04-14T23:43:50.165Z,94625.13
2023-04-14T23:46:19.029Z,94631.06
2023-04-14T23:48:48.030Z,94620.91
2023-04-14T23:51:20.485Z,94637.44
2023-04-14T23:53:51.270Z,94640.06
2023-04-14T23:56:20.481Z,94640.59
2023-04-14T23:58:49.349Z,94648.25
